sensor_id;sensor_type;location;lat;lon;timestamp;temperature;humidity
1994;DHT22;998;49.906;10.908;2023-04-25T00:00:35;10.50;99.90
1994;DHT22;998;49.906;10.908;2023-04-25T00:03:04;10.50;99.90
1994;DHT22;998;49.906;10.908;2023-04-25T00:05:32;10.40;99.90
1994;DHT22;998;49.906;10.908;2023-04-25T00:07:59;10.40;99.90
1994;DHT22;998;49.906;10.908;2023-04-25T00:10:27;10.40;99.90
1994;DHT22;998;49.906;10.908;2023-04-25T00:12:54;10.40;99.90
1994;DHT22;998;49.906;10.908;2023-04-25T00:15:23;10.40;99.90
1994;DHT22;998;49.906;10.908;2023-04-25T00:17:51;10.40;99.90
1994;DHT22;998;49.906;10.908;2023-04-25T00:20:21;10.50;99.90
1994;DHT22;998;49.906;10.908;2023-04-25T00:22:49;10.40;99.90
1994;DHT22;998;49.906;10.908;2023-04-25T00:25:16;10.40;99.90
1994;DHT22;998;49.906;10.908;2023-04-25T00:27:44;10.50;99.90
1994;DHT22;998;49.906;10.908;2023-04-25T00:30:12;10.40;99.90
1994;DHT22;998;49.906;10.908;2023-04-25T00:32:40;10.50;99.90
1994;DHT22;998;49.906;10.908;2023-04-25T00:35:08;10.50;99.90
1994;DHT22;998;49.906;10.908;2023-04-25T00:37:37;10.40;99.90
1994;DHT22;998;49.906;10.908;2023-04-25T00:40:06;10.40;99.90
1994;DHT22;998;49.906;10.908;2023-04-25T00:42:35;10.30;99.90
1994;DHT22;998;49.906;10.908;2023-04-25T00:45:05;10.40;99.90
1994;DHT22;998;49.906;10.908;2023-04-25T00:47:33;10.40;99.90
1994;DHT22;998;49.906;10.908;2023-04-25T00:50:03;10.40;99.90
1994;DHT22;998;49.906;10.908;2023-04-25T00:52:30;10.40;99.90
1994;DHT22;998;49.906;10.908;2023-04-25T00:54:59;10.40;99.90
1994;DHT22;998;49.906;10.908;2023-04-25T00:57:27;10.40;99.90
1994;DHT22;998;49.906;10.908;2023-04-25T00:59:55;10.50;99.90
1994;DHT22;998;49.906;10.908;2023-04-25T01:02:23;10.50;99.90
1994;DHT22;998;49.906;10.908;2023-04-25T01:04:51;10.50;99.90
1994;DHT22;998;49.906;10.908;2023-04-25T01:07:19;10.50;99.90
1994;DHT22;998;49.906;10.908;2023-04-25T01:09:46;10.40;99.90
1994;DHT22;998;49.906;10.908;2023-04-25T01:12:15;10.50;99.90
1994;DHT22;998;49.906;10.908;2023-04-25T01:14:43;10.50;99.90
1994;DHT22;998;49.906;10.908;2023-04-25T01:17:10;10.50;99.90
1994;DHT22;998;49.906;10.908;2023-04-25T01:19:38;10.30;99.90
1994;DHT22;998;49.906;10.908;2023-04-25T01:22:07;10.20;99.90
1994;DHT22;998;49.906;10.908;2023-04-25T01:24:36;10.30;99.90
1994;DHT22;998;49.906;10.908;2023-04-25T01:27:04;10.30;99.90
1994;DHT22;998;49.906;10.908;2023-04-25T01:29:32;10.30;99.90
1994;DHT22;998;49.906;10.908;2023-04-25T01:32:00;10.30;99.90
1994;DHT22;998;49.906;10.908;2023-04-25T01:34:29;10.20;99.90
1994;DHT22;998;49.906;10.908;2023-04-25T01:36:56;10.30;99.90
1994;DHT22;998;49.906;10.908;2023-04-25T01:39:27;10.30;99.90
1994;DHT22;998;49.906;10.908;2023-04-25T01:41:55;10.30;99.90
1994;DHT22;998;49.906;10.908;2023-04-25T01:44:22;10.30;99.90
1994;DHT22;998;49.906;10.908;2023-04-25T01:46:50;10.30;99.90
1994;DHT22;998;49.906;10.908;2023-04-25T01:49:18;10.30;99.90
1994;DHT22;998;49.906;10.908;2023-04-25T01:51:45;10.20;99.90
1994;DHT22;998;49.906;10.908;2023-04-25T01:54:13;10.30;99.90
1994;DHT22;998;49.906;10.908;2023-04-25T01:56:42;10.30;99.90
1994;DHT22;998;49.906;10.908;2023-04-25T01:59:09;10.30;99.90
1994;DHT22;998;49.906;10.908;2023-04-25T02:01:37;10.30;99.90
1994;DHT22;998;49.906;10.908;2023-04-25T02:04:04;10.30;99.90
1994;DHT22;998;49.906;10.908;2023-04-25T02:06:31;10.30;99.90
1994;DHT22;998;49.906;10.908;2023-04-25T02:08:58;10.20;99.90
1994;DHT22;998;49.906;10.908;2023-04-25T02:11:26;10.20;99.90
1994;DHT22;998;49.906;10.908;2023-04-25T02:13:54;10.20;99.90
1994;DHT22;998;49.906;10.908;2023-04-25T02:16:22;10.10;99.90
1994;DHT22;998;49.906;10.908;2023-04-25T02:18:49;10.10;99.90
1994;DHT22;998;49.906;10.908;2023-04-25T02:21:18;10.10;99.90
1994;DHT22;998;49.906;10.908;2023-04-25T02:23:45;10.10;99.90
1994;DHT22;998;49.906;10.908;2023-04-25T02:26:14;10.10;99.90
1994;DHT22;998;49.906;10.908;2023-04-25T02:28:42;10.00;99.90
1994;DHT22;998;49.906;10.908;2023-04-25T02:31:10;10.00;99.90
1994;DHT22;998;49.906;10.908;2023-04-25T02:33:38;10.00;99.90
1994;DHT22;998;49.906;10.908;2023-04-25T02:36:06;9.90;99.90
1994;DHT22;998;49.906;10.908;2023-04-25T02:38:33;9.90;99.90
1994;DHT22;998;49.906;10.908;2023-04-25T02:41:01;10.00;99.90
1994;DHT22;998;49.906;10.908;2023-04-25T02:43:28;10.00;99.90
1994;DHT22;998;49.906;10.908;2023-04-25T02:45:55;9.90;99.90
1994;DHT22;998;49.906;10.908;2023-04-25T02:48:24;9.90;99.90
1994;DHT22;998;49.906;10.908;2023-04-25T02:50:52;9.90;99.90
1994;DHT22;998;49.906;10.908;2023-04-25T02:53:19;9.80;99.90
1994;DHT22;998;49.906;10.908;2023-04-25T02:55:46;9.90;99.90
1994;DHT22;998;49.906;10.908;2023-04-25T02:58:14;9.90;99.90
1994;DHT22;998;49.906;10.908;2023-04-25T03:00:41;9.80;99.90
1994;DHT22;998;49.906;10.908;2023-04-25T03:03:09;9.80;99.90
1994;DHT22;998;49.906;10.908;2023-04-25T03:05:37;9.80;99.90
1994;DHT22;998;49.906;10.908;2023-04-25T03:08:05;9.80;99.90
1994;DHT22;998;49.906;10.908;2023-04-25T03:10:32;9.70;99.90
1994;DHT22;998;49.906;10.908;2023-04-25T03:13:00;9.60;99.90
1994;DHT22;998;49.906;10.908;2023-04-25T03:15:27;9.60;99.90
1994;DHT22;998;49.906;10.908;2023-04-25T03:17:55;9.70;99.90
1994;DHT22;998;49.906;10.908;2023-04-25T03:20:22;9.70;99.90
1994;DHT22;998;49.906;10.908;2023-04-25T03:22:51;9.70;99.90
1994;DHT22;998;49.906;10.908;2023-04-25T03:25:19;9.70;99.90
1994;DHT22;998;49.906;10.908;2023-04-25T03:27:46;9.60;99.90
1994;DHT22;998;49.906;10.908;2023-04-25T03:30:14;9.70;99.90
1994;DHT22;998;49.906;10.908;2023-04-25T03:32:41;9.70;99.90
1994;DHT22;998;49.906;10.908;2023-04-25T03:35:09;9.80;99.90
1994;DHT22;998;49.906;10.908;2023-04-25T03:37:36;9.80;99.90
1994;DHT22;998;49.906;10.908;2023-04-25T03:40:06;9.80;99.90
1994;DHT22;998;49.906;10.908;2023-04-25T03:42:34;9.70;99.90
1994;DHT22;998;49.906;10.908;2023-04-25T03:45:02;9.70;99.90
1994;DHT22;998;49.906;10.908;2023-04-25T03:47:30;9.70;99.90
1994;DHT22;998;49.906;10.908;2023-04-25T03:49:57;9.70;99.90
1994;DHT22;998;49.906;10.908;2023-04-25T03:52:26;9.70;99.90
1994;DHT22;998;49.906;10.908;2023-04-25T03:54:53;9.70;99.90
1994;DHT22;998;49.906;10.908;2023-04-25T03:57:22;9.60;99.90
1994;DHT22;998;49.906;10.908;2023-04-25T03:59:49;9.70;99.90
1994;DHT22;998;49.906;10.908;2023-04-25T04:02:17;9.70;99.90
1994;DHT22;998;49.906;10.908;2023-04-25T04:04:45;9.70;99.90
1994;DHT22;998;49.906;10.908;2023-04-25T04:07:12;9.70;99.90
1994;DHT22;998;49.906;10.908;2023-04-25T04:09:40;9.60;99.90
1994;DHT22;998;49.906;10.908;2023-04-25T04:12:07;9.60;99.90
1994;DHT22;998;49.906;10.908;2023-04-25T04:14:36;9.60;99.90
1994;DHT22;998;49.906;10.908;2023-04-25T04:17:03;9.60;99.90
1994;DHT22;998;49.906;10.908;2023-04-25T04:19:31;9.60;99.90
1994;DHT22;998;49.906;10.908;2023-04-25T04:21:59;9.60;99.90
1994;DHT22;998;49.906;10.908;2023-04-25T04:24:26;9.50;99.90
1994;DHT22;998;49.906;10.908;2023-04-25T04:26:53;9.50;99.90
1994;DHT22;998;49.906;10.908;2023-04-25T04:29:22;9.60;99.90
1994;DHT22;998;49.906;10.908;2023-04-25T04:31:51;9.70;99.90
1994;DHT22;998;49.906;10.908;2023-04-25T04:34:19;9.70;99.90
1994;DHT22;998;49.906;10.908;2023-04-25T04:36:47;9.70;99.90
1994;DHT22;998;49.906;10.908;2023-04-25T04:39:14;9.60;99.90
1994;DHT22;998;49.906;10.908;2023-04-25T04:41:42;9.60;99.90
1994;DHT22;998;49.906;10.908;2023-04-25T04:44:09;9.50;99.90
1994;DHT22;998;49.906;10.908;2023-04-25T04:46:37;9.50;99.90
1994;DHT22;998;49.906;10.908;2023-04-25T04:49:09;9.50;99.90
1994;DHT22;998;49.906;10.908;2023-04-25T04:51:36;9.50;99.90
1994;DHT22;998;49.906;10.908;2023-04-25T04:54:03;9.60;99.90
1994;DHT22;998;49.906;10.908;2023-04-25T04:56:31;9.60;99.90
1994;DHT22;998;49.906;10.908;2023-04-25T04:58:58;9.70;99.90
1994;DHT22;998;49.906;10.908;2023-04-25T05:01:27;9.60;99.90
1994;DHT22;998;49.906;10.908;2023-04-25T05:03:55;9.70;99.90
1994;DHT22;998;49.906;10.908;2023-04-25T05:06:27;9.70;99.90
1994;DHT22;998;49.906;10.908;2023-04-25T05:08:56;9.70;99.90
1994;DHT22;998;49.906;10.908;2023-04-25T05:11:24;9.60;99.90
1994;DHT22;998;49.906;10.908;2023-04-25T05:13:52;9.60;99.90
1994;DHT22;998;49.906;10.908;2023-04-25T05:16:20;9.60;99.90
1994;DHT22;998;49.906;10.908;2023-04-25T05:18:48;9.60;99.90
1994;DHT22;998;49.906;10.908;2023-04-25T05:21:15;9.60;99.90
1994;DHT22;998;49.906;10.908;2023-04-25T05:23:44;9.60;99.90
1994;DHT22;998;49.906;10.908;2023-04-25T05:26:11;9.50;99.90
1994;DHT22;998;49.906;10.908;2023-04-25T05:28:40;9.60;99.90
1994;DHT22;998;49.906;10.908;2023-04-25T05:31:09;9.60;99.90
1994;DHT22;998;49.906;10.908;2023-04-25T05:33:37;9.60;99.90
1994;DHT22;998;49.906;10.908;2023-04-25T05:36:05;9.60;99.90
1994;DHT22;998;49.906;10.908;2023-04-25T05:38:32;9.60;99.90
1994;DHT22;998;49.906;10.908;2023-04-25T05:41:01;9.60;99.90
1994;DHT22;998;49.906;10.908;2023-04-25T05:43:29;9.60;99.90
1994;DHT22;998;49.906;10.908;2023-04-25T05:45:56;9.60;99.90
1994;DHT22;998;49.906;10.908;2023-04-25T05:48:24;9.50;99.90
1994;DHT22;998;49.906;10.908;2023-04-25T05:50:51;9.60;99.90
1994;DHT22;998;49.906;10.908;2023-04-25T05:53:18;9.50;99.90
1994;DHT22;998;49.906;10.908;2023-04-25T05:55:47;9.50;99.90
1994;DHT22;998;49.906;10.908;2023-04-25T05:58:16;9.50;99.90
1994;DHT22;998;49.906;10.908;2023-04-25T06:00:43;9.50;99.90
1994;DHT22;998;49.906;10.908;2023-04-25T06:03:12;9.50;99.90
1994;DHT22;998;49.906;10.908;2023-04-25T06:05:41;9.50;99.90
1994;DHT22;998;49.906;10.908;2023-04-25T06:08:08;9.50;99.90
1994;DHT22;998;49.906;10.908;2023-04-25T06:10:36;9.50;99.90
1994;DHT22;998;49.906;10.908;2023-04-25T06:13:04;9.50;99.90
1994;DHT22;998;49.906;10.908;2023-04-25T06:15:33;9.50;99.90
1994;DHT22;998;49.906;10.908;2023-04-25T06:18:01;9.50;99.90
1994;DHT22;998;49.906;10.908;2023-04-25T06:20:28;9.40;99.90
1994;DHT22;998;49.906;10.908;2023-04-25T06:22:56;9.40;99.90
1994;DHT22;998;49.906;10.908;2023-04-25T06:25:23;9.40;99.90
1994;DHT22;998;49.906;10.908;2023-04-25T06:27:50;9.40;99.90
1994;DHT22;998;49.906;10.908;2023-04-25T06:30:18;9.40;99.90
1994;DHT22;998;49.906;10.908;2023-04-25T06:32:49;9.40;99.90
1994;DHT22;998;49.906;10.908;2023-04-25T06:35:17;9.50;99.90
1994;DHT22;998;49.906;10.908;2023-04-25T06:37:44;9.50;99.90
1994;DHT22;998;49.906;10.908;2023-04-25T06:40:11;9.50;99.90
1994;DHT22;998;49.906;10.908;2023-04-25T06:42:39;9.50;99.90
1994;DHT22;998;49.906;10.908;2023-04-25T06:45:07;9.50;99.90
1994;DHT22;998;49.906;10.908;2023-04-25T06:47:35;9.50;99.90
1994;DHT22;998;49.906;10.908;2023-04-25T06:50:04;9.50;99.90
1994;DHT22;998;49.906;10.908;2023-04-25T06:52:32;9.50;99.90
1994;DHT22;998;49.906;10.908;2023-04-25T06:54:59;9.60;99.90
1994;DHT22;998;49.906;10.908;2023-04-25T06:57:27;9.60;99.90
1994;DHT22;998;49.906;10.908;2023-04-25T06:59:54;9.60;99.90
1994;DHT22;998;49.906;10.908;2023-04-25T07:02:22;9.70;99.90
1994;DHT22;998;49.906;10.908;2023-04-25T07:04:49;9.60;99.90
1994;DHT22;998;49.906;10.908;2023-04-25T07:07:18;9.70;99.90
1994;DHT22;998;49.906;10.908;2023-04-25T07:09:45;9.60;99.90
1994;DHT22;998;49.906;10.908;2023-04-25T07:12:12;9.60;99.90
1994;DHT22;998;49.906;10.908;2023-04-25T07:14:40;9.60;99.90
1994;DHT22;998;49.906;10.908;2023-04-25T07:17:07;9.60;99.90
1994;DHT22;998;49.906;10.908;2023-04-25T07:19:35;9.60;99.90
1994;DHT22;998;49.906;10.908;2023-04-25T07:22:04;9.70;99.90
1994;DHT22;998;49.906;10.908;2023-04-25T07:24:33;9.60;99.90
1994;DHT22;998;49.906;10.908;2023-04-25T07:27:01;9.60;99.90
1994;DHT22;998;49.906;10.908;2023-04-25T07:29:28;9.60;99.90
1994;DHT22;998;49.906;10.908;2023-04-25T07:31:56;9.70;99.90
1994;DHT22;998;49.906;10.908;2023-04-25T07:34:23;9.60;99.90
1994;DHT22;998;49.906;10.908;2023-04-25T07:36:51;9.60;99.90
1994;DHT22;998;49.906;10.908;2023-04-25T07:39:18;9.60;99.90
1994;DHT22;998;49.906;10.908;2023-04-25T07:41:47;9.60;99.90
1994;DHT22;998;49.906;10.908;2023-04-25T07:44:14;9.70;99.90
1994;DHT22;998;49.906;10.908;2023-04-25T07:46:41;9.70;99.90
1994;DHT22;998;49.906;10.908;2023-04-25T07:49:09;9.70;99.90
1994;DHT22;998;49.906;10.908;2023-04-25T07:51:37;9.80;99.90
1994;DHT22;998;49.906;10.908;2023-04-25T07:54:04;9.80;99.90
1994;DHT22;998;49.906;10.908;2023-04-25T07:56:31;9.90;99.90
1994;DHT22;998;49.906;10.908;2023-04-25T07:59:00;9.90;99.90
1994;DHT22;998;49.906;10.908;2023-04-25T08:01:28;9.80;99.90
1994;DHT22;998;49.906;10.908;2023-04-25T08:03:55;9.90;99.90
1994;DHT22;998;49.906;10.908;2023-04-25T08:06:22;9.90;99.90
1994;DHT22;998;49.906;10.908;2023-04-25T08:08:50;10.00;99.90
1994;DHT22;998;49.906;10.908;2023-04-25T08:11:17;10.00;99.90
1994;DHT22;998;49.906;10.908;2023-04-25T08:13:44;10.00;99.90
1994;DHT22;998;49.906;10.908;2023-04-25T08:16:13;10.00;99.90
1994;DHT22;998;49.906;10.908;2023-04-25T08:18:41;10.00;99.90
1994;DHT22;998;49.906;10.908;2023-04-25T08:21:09;10.10;99.90
1994;DHT22;998;49.906;10.908;2023-04-25T08:23:37;10.10;99.90
1994;DHT22;998;49.906;10.908;2023-04-25T08:26:04;10.10;99.90
1994;DHT22;998;49.906;10.908;2023-04-25T08:28:32;10.00;99.90
1994;DHT22;998;49.906;10.908;2023-04-25T08:30:59;10.00;99.90
1994;DHT22;998;49.906;10.908;2023-04-25T08:33:28;10.00;99.90
1994;DHT22;998;49.906;10.908;2023-04-25T08:35:55;10.00;99.90
1994;DHT22;998;49.906;10.908;2023-04-25T08:38:23;10.00;99.90
1994;DHT22;998;49.906;10.908;2023-04-25T08:40:51;10.00;99.90
1994;DHT22;998;49.906;10.908;2023-04-25T08:43:19;10.00;99.90
1994;DHT22;998;49.906;10.908;2023-04-25T08:45:47;9.90;99.90
1994;DHT22;998;49.906;10.908;2023-04-25T08:48:16;9.90;99.90
1994;DHT22;998;49.906;10.908;2023-04-25T08:50:49;10.00;99.90
1994;DHT22;998;49.906;10.908;2023-04-25T08:53:22;10.00;99.90
1994;DHT22;998;49.906;10.908;2023-04-25T08:55:54;10.10;99.90
1994;DHT22;998;49.906;10.908;2023-04-25T08:58:22;10.20;99.90
1994;DHT22;998;49.906;10.908;2023-04-25T09:00:51;10.20;99.90
1994;DHT22;998;49.906;10.908;2023-04-25T09:03:18;10.10;99.90
1994;DHT22;998;49.906;10.908;2023-04-25T09:05:47;10.20;99.90
1994;DHT22;998;49.906;10.908;2023-04-25T09:08:15;10.20;99.90
1994;DHT22;998;49.906;10.908;2023-04-25T09:10:43;10.20;99.90
1994;DHT22;998;49.906;10.908;2023-04-25T09:13:12;10.20;99.90
1994;DHT22;998;49.906;10.908;2023-04-25T09:15:48;10.00;99.90
1994;DHT22;998;49.906;10.908;2023-04-25T09:18:22;9.90;99.90
1994;DHT22;998;49.906;10.908;2023-04-25T09:20:54;9.90;99.90
1994;DHT22;998;49.906;10.908;2023-04-25T09:23:22;10.00;99.90
1994;DHT22;998;49.906;10.908;2023-04-25T09:25:51;10.10;99.90
1994;DHT22;998;49.906;10.908;2023-04-25T09:28:24;10.30;99.90
1994;DHT22;998;49.906;10.908;2023-04-25T09:30:55;10.40;99.90
1994;DHT22;998;49.906;10.908;2023-04-25T09:33:28;10.50;99.90
1994;DHT22;998;49.906;10.908;2023-04-25T09:36:04;10.60;99.90
1994;DHT22;998;49.906;10.908;2023-04-25T09:38:40;10.70;99.90
1994;DHT22;998;49.906;10.908;2023-04-25T09:41:08;10.60;99.90
1994;DHT22;998;49.906;10.908;2023-04-25T09:43:36;10.50;99.90
1994;DHT22;998;49.906;10.908;2023-04-25T09:46:08;10.40;99.90
1994;DHT22;998;49.906;10.908;2023-04-25T09:48:36;10.40;99.90
1994;DHT22;998;49.906;10.908;2023-04-25T09:51:07;10.40;99.90
1994;DHT22;998;49.906;10.908;2023-04-25T09:53:35;10.40;99.90
1994;DHT22;998;49.906;10.908;2023-04-25T09:56:04;10.50;99.90
1994;DHT22;998;49.906;10.908;2023-04-25T09:58:33;10.60;99.90
1994;DHT22;998;49.906;10.908;2023-04-25T10:01:01;10.60;99.90
1994;DHT22;998;49.906;10.908;2023-04-25T10:03:30;10.70;99.90
1994;DHT22;998;49.906;10.908;2023-04-25T10:05:59;10.60;99.90
1994;DHT22;998;49.906;10.908;2023-04-25T10:08:32;10.70;99.90
1994;DHT22;998;49.906;10.908;2023-04-25T10:11:01;10.70;99.90
1994;DHT22;998;49.906;10.908;2023-04-25T10:13:29;10.70;99.90
1994;DHT22;998;49.906;10.908;2023-04-25T10:15:58;10.70;99.90
1994;DHT22;998;49.906;10.908;2023-04-25T10:18:26;10.70;99.90
1994;DHT22;998;49.906;10.908;2023-04-25T10:20:55;10.80;99.90
1994;DHT22;998;49.906;10.908;2023-04-25T10:23:23;10.90;99.90
1994;DHT22;998;49.906;10.908;2023-04-25T10:25:53;10.90;99.90
1994;DHT22;998;49.906;10.908;2023-04-25T10:28:21;11.00;99.90
1994;DHT22;998;49.906;10.908;2023-04-25T10:30:58;11.10;99.90
1994;DHT22;998;49.906;10.908;2023-04-25T10:33:35;11.10;99.90
1994;DHT22;998;49.906;10.908;2023-04-25T10:36:10;11.00;99.90
1994;DHT22;998;49.906;10.908;2023-04-25T10:38:38;11.10;99.90
1994;DHT22;998;49.906;10.908;2023-04-25T10:41:09;11.30;99.90
1994;DHT22;998;49.906;10.908;2023-04-25T10:43:38;11.30;99.90
1994;DHT22;998;49.906;10.908;2023-04-25T10:46:19;11.30;99.90
1994;DHT22;998;49.906;10.908;2023-04-25T10:48:49;11.30;99.90
1994;DHT22;998;49.906;10.908;2023-04-25T10:51:22;11.30;99.90
1994;DHT22;998;49.906;10.908;2023-04-25T10:54:00;11.00;99.90
1994;DHT22;998;49.906;10.908;2023-04-25T10:56:30;11.00;99.90
1994;DHT22;998;49.906;10.908;2023-04-25T10:59:08;10.90;99.90
1994;DHT22;998;49.906;10.908;2023-04-25T11:01:38;10.90;99.90
1994;DHT22;998;49.906;10.908;2023-04-25T11:04:06;10.80;99.90
1994;DHT22;998;49.906;10.908;2023-04-25T11:06:56;10.90;99.90
1994;DHT22;998;49.906;10.908;2023-04-25T11:09:25;10.90;99.90
1994;DHT22;998;49.906;10.908;2023-04-25T11:11:55;10.90;99.90
1994;DHT22;998;49.906;10.908;2023-04-25T11:14:23;10.90;99.90
1994;DHT22;998;49.906;10.908;2023-04-25T11:16:53;11.00;99.90
1994;DHT22;998;49.906;10.908;2023-04-25T11:19:21;11.00;99.90
1994;DHT22;998;49.906;10.908;2023-04-25T11:21:49;11.00;99.90
1994;DHT22;998;49.906;10.908;2023-04-25T11:24:16;11.10;99.90
1994;DHT22;998;49.906;10.908;2023-04-25T11:26:47;11.10;99.90
1994;DHT22;998;49.906;10.908;2023-04-25T11:29:16;11.10;99.90
1994;DHT22;998;49.906;10.908;2023-04-25T11:31:44;11.30;99.90
1994;DHT22;998;49.906;10.908;2023-04-25T11:34:11;11.30;99.90
1994;DHT22;998;49.906;10.908;2023-04-25T11:36:43;11.50;99.90
1994;DHT22;998;49.906;10.908;2023-04-25T11:39:11;11.60;99.90
1994;DHT22;998;49.906;10.908;2023-04-25T11:41:39;11.70;99.90
1994;DHT22;998;49.906;10.908;2023-04-25T11:44:06;11.60;99.90
1994;DHT22;998;49.906;10.908;2023-04-25T11:46:35;11.50;99.90
1994;DHT22;998;49.906;10.908;2023-04-25T11:49:03;11.50;99.90
1994;DHT22;998;49.906;10.908;2023-04-25T11:51:38;11.40;99.90
1994;DHT22;998;49.906;10.908;2023-04-25T11:54:06;11.30;99.90
1994;DHT22;998;49.906;10.908;2023-04-25T11:56:34;11.20;99.90
1994;DHT22;998;49.906;10.908;2023-04-25T11:59:02;11.20;99.90
1994;DHT22;998;49.906;10.908;2023-04-25T12:01:31;11.20;99.90
1994;DHT22;998;49.906;10.908;2023-04-25T12:04:10;11.20;99.90
1994;DHT22;998;49.906;10.908;2023-04-25T12:06:38;11.20;99.90
1994;DHT22;998;49.906;10.908;2023-04-25T12:09:08;11.10;99.90
1994;DHT22;998;49.906;10.908;2023-04-25T12:11:41;11.10;99.90
1994;DHT22;998;49.906;10.908;2023-04-25T12:14:09;11.10;99.90
1994;DHT22;998;49.906;10.908;2023-04-25T12:16:41;11.10;99.90
1994;DHT22;998;49.906;10.908;2023-04-25T12:19:13;11.10;99.90
1994;DHT22;998;49.906;10.908;2023-04-25T12:21:41;11.00;99.90
1994;DHT22;998;49.906;10.908;2023-04-25T12:24:10;11.00;99.90
1994;DHT22;998;49.906;10.908;2023-04-25T12:26:48;11.00;99.90
1994;DHT22;998;49.906;10.908;2023-04-25T12:29:18;11.00;99.90
1994;DHT22;998;49.906;10.908;2023-04-25T12:31:46;11.00;99.90
1994;DHT22;998;49.906;10.908;2023-04-25T12:34:15;11.00;99.90
1994;DHT22;998;49.906;10.908;2023-04-25T12:36:42;11.10;99.90
1994;DHT22;998;49.906;10.908;2023-04-25T12:39:15;11.20;99.90
1994;DHT22;998;49.906;10.908;2023-04-25T12:41:43;11.40;99.90
1994;DHT22;998;49.906;10.908;2023-04-25T12:44:10;11.40;99.90
1994;DHT22;998;49.906;10.908;2023-04-25T12:46:37;11.50;99.90
1994;DHT22;998;49.906;10.908;2023-04-25T12:49:05;11.50;99.90
1994;DHT22;998;49.906;10.908;2023-04-25T12:51:35;11.50;99.90
1994;DHT22;998;49.906;10.908;2023-04-25T12:54:03;11.30;99.90
1994;DHT22;998;49.906;10.908;2023-04-25T12:56:31;11.30;99.90
1994;DHT22;998;49.906;10.908;2023-04-25T12:58:59;11.30;99.90
1994;DHT22;998;49.906;10.908;2023-04-25T13:01:26;11.30;99.90
1994;DHT22;998;49.906;10.908;2023-04-25T13:03:54;11.30;99.90
1994;DHT22;998;49.906;10.908;2023-04-25T13:06:22;11.30;99.90
1994;DHT22;998;49.906;10.908;2023-04-25T13:08:51;11.30;99.90
1994;DHT22;998;49.906;10.908;2023-04-25T13:11:18;11.20;99.90
1994;DHT22;998;49.906;10.908;2023-04-25T13:13:45;11.20;99.90
1994;DHT22;998;49.906;10.908;2023-04-25T13:16:13;11.20;99.90
1994;DHT22;998;49.906;10.908;2023-04-25T13:18:41;11.20;99.90
1994;DHT22;998;49.906;10.908;2023-04-25T13:21:09;11.10;99.90
1994;DHT22;998;49.906;10.908;2023-04-25T13:23:37;11.20;99.90
1994;DHT22;998;49.906;10.908;2023-04-25T13:26:07;11.20;99.90
1994;DHT22;998;49.906;10.908;2023-04-25T13:28:35;11.20;99.90
1994;DHT22;998;49.906;10.908;2023-04-25T13:31:02;11.20;99.90
1994;DHT22;998;49.906;10.908;2023-04-25T13:33:30;11.10;99.90
1994;DHT22;998;49.906;10.908;2023-04-25T13:35:57;11.10;99.90
1994;DHT22;998;49.906;10.908;2023-04-25T13:38:25;11.10;99.90
1994;DHT22;998;49.906;10.908;2023-04-25T13:40:53;11.00;99.90
1994;DHT22;998;49.906;10.908;2023-04-25T13:43:22;11.00;99.90
1994;DHT22;998;49.906;10.908;2023-04-25T13:45:49;10.90;99.90
1994;DHT22;998;49.906;10.908;2023-04-25T13:48:18;10.80;99.90
1994;DHT22;998;49.906;10.908;2023-04-25T13:50:45;10.80;99.90
1994;DHT22;998;49.906;10.908;2023-04-25T13:53:13;10.80;99.90
1994;DHT22;998;49.906;10.908;2023-04-25T13:55:40;10.80;99.90
1994;DHT22;998;49.906;10.908;2023-04-25T13:58:07;10.70;99.90
1994;DHT22;998;49.906;10.908;2023-04-25T14:00:38;10.70;99.90
1994;DHT22;998;49.906;10.908;2023-04-25T14:03:08;10.70;99.90
1994;DHT22;998;49.906;10.908;2023-04-25T14:05:36;10.70;99.90
1994;DHT22;998;49.906;10.908;2023-04-25T14:08:06;10.70;99.90
1994;DHT22;998;49.906;10.908;2023-04-25T14:10:34;10.70;99.90
1994;DHT22;998;49.906;10.908;2023-04-25T14:13:01;10.70;99.90
1994;DHT22;998;49.906;10.908;2023-04-25T14:15:30;10.70;99.90
1994;DHT22;998;49.906;10.908;2023-04-25T14:18:00;10.70;99.90
1994;DHT22;998;49.906;10.908;2023-04-25T14:20:28;10.70;99.90
1994;DHT22;998;49.906;10.908;2023-04-25T14:22:55;10.70;99.90
1994;DHT22;998;49.906;10.908;2023-04-25T14:25:24;10.70;99.90
1994;DHT22;998;49.906;10.908;2023-04-25T14:27:51;10.70;99.90
1994;DHT22;998;49.906;10.908;2023-04-25T14:30:18;10.70;99.90
1994;DHT22;998;49.906;10.908;2023-04-25T14:32:48;10.80;99.90
1994;DHT22;998;49.906;10.908;2023-04-25T14:35:17;10.80;99.90
1994;DHT22;998;49.906;10.908;2023-04-25T14:37:45;10.70;99.90
1994;DHT22;998;49.906;10.908;2023-04-25T14:40:13;10.60;99.90
1994;DHT22;998;49.906;10.908;2023-04-25T14:42:41;10.60;99.90
1994;DHT22;998;49.906;10.908;2023-04-25T14:45:09;10.50;99.90
1994;DHT22;998;49.906;10.908;2023-04-25T14:47:37;10.50;99.90
1994;DHT22;998;49.906;10.908;2023-04-25T14:50:06;10.50;99.90
1994;DHT22;998;49.906;10.908;2023-04-25T14:52:35;10.40;99.90
1994;DHT22;998;49.906;10.908;2023-04-25T14:55:03;10.40;99.90
1994;DHT22;998;49.906;10.908;2023-04-25T14:57:31;10.40;99.90
1994;DHT22;998;49.906;10.908;2023-04-25T14:59:59;10.40;99.90
1994;DHT22;998;49.906;10.908;2023-04-25T15:02:27;10.50;99.90
1994;DHT22;998;49.906;10.908;2023-04-25T15:04:54;10.50;99.90
1994;DHT22;998;49.906;10.908;2023-04-25T15:07:22;10.50;99.90
1994;DHT22;998;49.906;10.908;2023-04-25T15:09:51;10.50;99.90
1994;DHT22;998;49.906;10.908;2023-04-25T15:12:19;10.60;99.90
1994;DHT22;998;49.906;10.908;2023-04-25T15:14:47;10.60;99.90
1994;DHT22;998;49.906;10.908;2023-04-25T15:17:14;10.60;99.90
1994;DHT22;998;49.906;10.908;2023-04-25T15:19:41;10.70;99.90
1994;DHT22;998;49.906;10.908;2023-04-25T15:22:09;10.90;99.90
1994;DHT22;998;49.906;10.908;2023-04-25T15:24:37;11.10;99.90
1994;DHT22;998;49.906;10.908;2023-04-25T15:27:05;11.20;99.90
1994;DHT22;998;49.906;10.908;2023-04-25T15:29:34;11.30;99.90
1994;DHT22;998;49.906;10.908;2023-04-25T15:32:01;11.20;99.90
1994;DHT22;998;49.906;10.908;2023-04-25T15:34:29;11.10;99.90
1994;DHT22;998;49.906;10.908;2023-04-25T15:36:56;11.10;99.90
1994;DHT22;998;49.906;10.908;2023-04-25T15:39:24;11.10;99.90
1994;DHT22;998;49.906;10.908;2023-04-25T15:41:51;11.00;99.90
1994;DHT22;998;49.906;10.908;2023-04-25T15:44:20;11.00;99.90
1994;DHT22;998;49.906;10.908;2023-04-25T15:46:47;11.00;99.90
1994;DHT22;998;49.906;10.908;2023-04-25T15:49:15;11.00;99.90
1994;DHT22;998;49.906;10.908;2023-04-25T15:51:44;10.90;99.90
1994;DHT22;998;49.906;10.908;2023-04-25T15:54:11;11.00;99.90
1994;DHT22;998;49.906;10.908;2023-04-25T15:56:39;10.90;99.90
1994;DHT22;998;49.906;10.908;2023-04-25T15:59:06;10.90;99.90
1994;DHT22;998;49.906;10.908;2023-04-25T16:01:35;10.90;99.90
1994;DHT22;998;49.906;10.908;2023-04-25T16:04:02;10.90;99.90
1994;DHT22;998;49.906;10.908;2023-04-25T16:06:30;10.90;99.90
1994;DHT22;998;49.906;10.908;2023-04-25T16:08:58;10.90;99.90
1994;DHT22;998;49.906;10.908;2023-04-25T16:11:25;10.90;99.90
1994;DHT22;998;49.906;10.908;2023-04-25T16:13:54;10.80;99.90